createdAt,value
2022-08-26T00:01:30.534Z,11.93
2022-08-26T00:03:57.093Z,9.90
2022-08-26T00:06:24.711Z,15.03
2022-08-26T00:08:51.802Z,11.03
2022-08-26T00:11:26.520Z,16.33
2022-08-26T00:13:54.668Z,12.40
2022-08-26T00:16:22.110Z,12.17
2022-08-26T00:18:48.647Z,10.70
2022-08-26T00:21:16.182Z,12.43
2022-08-26T00:23:42.718Z,10.70
2022-08-26T00:26:09.287Z,13.43
2022-08-26T00:28:37.844Z,14.33
2022-08-26T00:31:04.542Z,12.90
2022-08-26T00:33:33.466Z,9.33
2022-08-26T00:36:01.714Z,10.57
2022-08-26T00:38:29.043Z,10.80
2022-08-26T00:40:57.473Z,9.50
2022-08-26T00:43:25.249Z,12.20
2022-08-26T00:45:59.883Z,12.17
2022-08-26T00:48:31.716Z,11.67
2022-08-26T00:51:01.987Z,14.27
2022-08-26T00:53:30.894Z,10.63
2022-08-26T00:56:04.869Z,12.10
2022-08-26T00:58:34.098Z,10.80
2022-08-26T01:01:00.963Z,11.00
2022-08-26T01:03:29.160Z,12.57
2022-08-26T01:05:57.486Z,9.93
2022-08-26T01:08:24.767Z,15.87
2022-08-26T01:10:52.426Z,9.97
2022-08-26T01:13:23.120Z,11.63
2022-08-26T01:15:55.169Z,10.03
2022-08-26T01:18:22.475Z,13.70
2022-08-26T01:21:13.914Z,14.67
2022-08-26T01:23:45.021Z,14.10
2022-08-26T01:26:50.325Z,13.93
2022-08-26T01:29:19.144Z,10.93
2022-08-26T01:31:50.036Z,13.10
2022-08-26T01:34:25.338Z,14.57
2022-08-26T01:37:01.950Z,12.97
2022-08-26T01:39:29.188Z,13.07
2022-08-26T01:41:57.028Z,10.50
2022-08-26T01:44:26.289Z,11.37
2022-08-26T01:46:53.361Z,9.77
2022-08-26T01:49:21.009Z,10.50
2022-08-26T01:51:49.776Z,12.67
2022-08-26T01:54:16.888Z,14.13
2022-08-26T01:56:47.734Z,12.97
2022-08-26T01:59:17.035Z,13.30
2022-08-26T02:01:43.892Z,16.10
2022-08-26T02:04:21.844Z,9.60
2022-08-26T02:06:48.802Z,15.63
2022-08-26T02:09:16.846Z,14.83
2022-08-26T02:11:44.687Z,9.53
2022-08-26T02:14:21.319Z,12.77
2022-08-26T02:16:50.290Z,13.57
2022-08-26T02:19:19.925Z,14.00
2022-08-26T02:21:50.983Z,15.43
2022-08-26T02:24:23.038Z,8.67
2022-08-26T02:26:50.218Z,15.07
2022-08-26T02:29:24.974Z,12.73
2022-08-26T02:31:52.797Z,11.73
2022-08-26T02:34:23.465Z,14.37
2022-08-26T02:36:50.895Z,11.83
2022-08-26T02:39:22.216Z,12.27
2022-08-26T02:41:49.197Z,9.23
2022-08-26T02:44:15.930Z,10.73
2022-08-26T02:46:46.821Z,13.17
2022-08-26T02:49:14.981Z,11.87
2022-08-26T02:51:41.602Z,11.87
2022-08-26T02:54:09.805Z,14.07
2022-08-26T02:56:36.470Z,14.83
2022-08-26T02:59:03.086Z,16.00
2022-08-26T03:01:32.857Z,16.10
2022-08-26T03:04:01.215Z,16.70
2022-08-26T03:06:27.925Z,11.47
2022-08-26T03:08:55.881Z,10.50
2022-08-26T03:11:22.749Z,12.83
2022-08-26T03:13:52.713Z,14.40
2022-08-26T03:16:20.720Z,13.50
2022-08-26T03:18:52.262Z,15.83
2022-08-26T03:21:19.512Z,10.73
2022-08-26T03:23:46.185Z,10.53
2022-08-26T03:26:14.387Z,12.90
2022-08-26T03:29:01.017Z,11.00
2022-08-26T03:31:29.279Z,13.57
2022-08-26T03:33:59.818Z,13.47
2022-08-26T03:36:26.960Z,10.30
2022-08-26T03:38:53.644Z,10.00
2022-08-26T03:41:21.368Z,15.40
2022-08-26T03:43:50.772Z,11.67
2022-08-26T03:46:18.664Z,12.83
2022-08-26T03:48:45.804Z,12.27
2022-08-26T03:51:18.265Z,10.87
2022-08-26T03:53:47.321Z,14.90
2022-08-26T03:56:15.322Z,11.90
2022-08-26T03:58:44.719Z,10.90
2022-08-26T04:01:23.467Z,11.90
2022-08-26T04:04:00.978Z,14.67
2022-08-26T04:06:39.033Z,11.53
2022-08-26T04:09:08.662Z,11.07
2022-08-26T04:11:38.384Z,12.13
2022-08-26T04:14:08.658Z,17.83
2022-08-26T04:16:35.399Z,18.07
2022-08-26T04:19:02.268Z,13.93
2022-08-26T04:21:29.005Z,10.67
2022-08-26T04:23:56.081Z,11.53
2022-08-26T04:26:25.301Z,12.07
2022-08-26T04:28:54.366Z,16.30
2022-08-26T04:31:21.102Z,13.77
2022-08-26T04:33:49.997Z,14.53
2022-08-26T04:36:17.688Z,13.93
2022-08-26T04:38:47.256Z,16.97
2022-08-26T04:41:15.278Z,15.47
2022-08-26T04:43:44.413Z,13.27
2022-08-26T04:46:12.843Z,13.27
2022-08-26T04:48:41.124Z,12.80
2022-08-26T04:51:09.184Z,17.57
2022-08-26T04:53:36.976Z,11.27
2022-08-26T04:56:04.069Z,16.90
2022-08-26T04:58:31.587Z,10.80
2022-08-26T05:00:58.566Z,11.70
2022-08-26T05:03:27.246Z,10.70
2022-08-26T05:05:57.780Z,14.73
2022-08-26T05:08:24.714Z,13.40
2022-08-26T05:10:54.745Z,14.13
2022-08-26T05:13:24.851Z,14.30
2022-08-26T05:15:51.719Z,15.67
2022-08-26T05:18:21.343Z,15.40
2022-08-26T05:20:53.919Z,11.30
2022-08-26T05:23:23.066Z,18.00
2022-08-26T05:25:54.614Z,11.13
2022-08-26T05:28:23.937Z,16.13
2022-08-26T05:30:51.285Z,15.43
2022-08-26T05:33:18.521Z,10.13
2022-08-26T05:35:45.757Z,15.20
2022-08-26T05:38:15.632Z,11.13
2022-08-26T05:40:44.790Z,13.73
2022-08-26T05:43:13.398Z,14.40
2022-08-26T05:45:46.000Z,13.50
2022-08-26T05:48:14.153Z,15.33
2022-08-26T05:50:43.353Z,14.20
2022-08-26T05:53:11.499Z,10.40
2022-08-26T05:55:44.562Z,11.10
2022-08-26T05:58:12.034Z,11.90
2022-08-26T06:00:39.489Z,13.07
2022-08-26T06:03:08.747Z,13.17
2022-08-26T06:05:39.557Z,13.10
2022-08-26T06:08:13.931Z,10.07
2022-08-26T06:11:05.795Z,11.47
2022-08-26T06:13:33.578Z,12.83
2022-08-26T06:16:05.275Z,14.60
2022-08-26T06:18:36.420Z,12.73
2022-08-26T06:21:28.091Z,12.77
2022-08-26T06:24:15.834Z,14.10
2022-08-26T06:26:50.461Z,13.23
2022-08-26T06:29:23.642Z,12.87
2022-08-26T06:31:52.414Z,11.87
2022-08-26T06:34:19.236Z,13.27
2022-08-26T06:36:47.235Z,13.20
2022-08-26T06:39:15.405Z,11.10
2022-08-26T06:41:44.918Z,13.30
2022-08-26T06:44:13.291Z,14.07
2022-08-26T06:46:41.074Z,12.17
2022-08-26T06:49:08.040Z,12.10
2022-08-26T06:51:37.182Z,13.47
2022-08-26T06:54:05.536Z,10.77
2022-08-26T06:56:40.216Z,11.23
2022-08-26T06:59:08.263Z,12.97
2022-08-26T07:01:38.515Z,9.33
2022-08-26T07:04:10.426Z,12.70
2022-08-26T07:06:40.302Z,15.40
2022-08-26T07:09:09.985Z,14.73
2022-08-26T07:11:38.448Z,12.60
2022-08-26T07:14:06.167Z,13.70
2022-08-26T07:16:32.918Z,11.57
2022-08-26T07:18:59.523Z,9.93
2022-08-26T07:21:28.302Z,13.27
2022-08-26T07:24:00.056Z,15.80
2022-08-26T07:26:30.199Z,13.73
2022-08-26T07:28:57.830Z,12.90
2022-08-26T07:31:28.817Z,14.10
2022-08-26T07:33:56.977Z,11.10
2022-08-26T07:36:24.493Z,14.03
2022-08-26T07:38:52.060Z,14.47
2022-08-26T07:41:20.385Z,13.10
2022-08-26T07:43:46.950Z,10.47
2022-08-26T07:46:27.143Z,11.50
2022-08-26T07:48:56.549Z,12.70
2022-08-26T07:51:23.327Z,11.00
2022-08-26T07:53:52.378Z,12.30
2022-08-26T07:56:20.319Z,11.60
2022-08-26T07:58:51.377Z,10.67
2022-08-26T08:01:23.789Z,12.37
2022-08-26T08:03:51.762Z,20.37
2022-08-26T08:06:19.790Z,14.67
2022-08-26T08:08:46.360Z,10.80
2022-08-26T08:11:14.182Z,16.33
2022-08-26T08:13:40.715Z,14.50
2022-08-26T08:16:12.534Z,15.57
2022-08-26T08:18:40.439Z,10.93
2022-08-26T08:21:23.914Z,12.50
2022-08-26T08:23:55.487Z,16.17
2022-08-26T08:26:23.447Z,17.27
2022-08-26T08:28:50.652Z,10.70
2022-08-26T08:31:54.376Z,13.50
2022-08-26T08:34:12.344Z,17.13
2022-08-26T08:36:38.832Z,11.23
2022-08-26T08:39:06.472Z,12.00
2022-08-26T08:41:45.267Z,9.80
2022-08-26T08:44:15.958Z,11.90
2022-08-26T08:46:42.722Z,14.60
2022-08-26T08:49:10.620Z,12.23
2022-08-26T08:51:48.133Z,13.60
2022-08-26T08:54:14.773Z,10.47
2022-08-26T08:56:54.974Z,13.63
2022-08-26T08:59:25.931Z,15.47
2022-08-26T09:01:53.948Z,14.20
2022-08-26T09:04:39.432Z,13.87
2022-08-26T09:07:12.154Z,13.77
2022-08-26T09:09:42.136Z,13.73
2022-08-26T09:12:20.666Z,12.00
2022-08-26T09:15:05.370Z,12.87
2022-08-26T09:17:57.418Z,17.33
2022-08-26T09:20:33.104Z,13.20
2022-08-26T09:22:59.598Z,13.37
2022-08-26T09:25:26.411Z,14.17
2022-08-26T09:27:53.716Z,16.10
2022-08-26T09:30:34.838Z,11.03
2022-08-26T09:33:01.419Z,14.73
2022-08-26T09:35:32.402Z,12.43
2022-08-26T09:37:59.516Z,12.27
2022-08-26T09:40:34.652Z,12.50
2022-08-26T09:43:13.749Z,19.33
2022-08-26T09:45:50.166Z,16.07
2022-08-26T09:48:44.054Z,11.87
2022-08-26T09:51:31.575Z,13.30
2022-08-26T09:54:00.057Z,12.37
2022-08-26T09:56:32.721Z,13.13
2022-08-26T09:59:00.636Z,13.37
2022-08-26T10:01:35.370Z,15.00
2022-08-26T10:04:14.715Z,17.23
2022-08-26T10:07:03.832Z,16.60
2022-08-26T10:09:35.003Z,13.87
2022-08-26T10:12:11.085Z,12.27
2022-08-26T10:14:48.533Z,13.27
2022-08-26T10:17:37.074Z,13.43
2022-08-26T10:20:23.364Z,14.10
2022-08-26T10:23:01.205Z,17.13
2022-08-26T10:25:43.055Z,14.70
2022-08-26T10:28:34.317Z,15.03
2022-08-26T10:31:05.342Z,16.17
2022-08-26T10:33:31.926Z,12.40
2022-08-26T10:36:01.105Z,15.17
2022-08-26T10:38:36.494Z,13.30
2022-08-26T10:41:09.786Z,14.87
2022-08-26T10:43:41.758Z,17.13
2022-08-26T10:46:18.441Z,14.03
2022-08-26T10:48:53.446Z,11.23
2022-08-26T10:51:25.144Z,16.63
2022-08-26T10:54:26.169Z,14.87
2022-08-26T10:57:01.521Z,17.07
2022-08-26T10:59:36.114Z,15.07
2022-08-26T11:02:33.041Z,11.23
2022-08-26T11:05:03.226Z,16.40
2022-08-26T11:07:45.450Z,10.17
2022-08-26T11:10:21.269Z,13.47
2022-08-26T11:12:49.416Z,12.17
2022-08-26T11:15:24.636Z,11.60
2022-08-26T11:17:51.416Z,12.87
2022-08-26T11:20:46.049Z,15.17
2022-08-26T11:23:13.695Z,13.53
2022-08-26T11:26:01.577Z,9.27
2022-08-26T11:28:35.572Z,11.47
2022-08-26T11:31:03.302Z,12.17
2022-08-26T11:33:43.924Z,17.73
2022-08-26T11:36:12.525Z,12.57
2022-08-26T11:38:42.743Z,11.10
2022-08-26T11:41:12.248Z,14.93
2022-08-26T11:43:39.710Z,16.90
2022-08-26T11:46:10.533Z,13.37
2022-08-26T11:48:39.982Z,12.03
2022-08-26T11:51:20.330Z,16.37
2022-08-26T11:53:47.196Z,13.43
2022-08-26T11:56:33.248Z,15.33
2022-08-26T11:59:01.484Z,12.03
2022-08-26T12:01:38.280Z,20.10
2022-08-26T12:04:07.542Z,14.23
2022-08-26T12:06:43.410Z,13.83
2022-08-26T12:09:20.435Z,12.33
2022-08-26T12:11:47.021Z,14.73
2022-08-26T12:14:24.313Z,14.47
2022-08-26T12:16:51.879Z,10.73
2022-08-26T12:19:29.064Z,10.33
2022-08-26T12:22:06.608Z,13.67
2022-08-26T12:24:33.188Z,13.30
2022-08-26T12:27:22.332Z,13.87
2022-08-26T12:30:04.292Z,15.33
2022-08-26T12:32:35.024Z,12.47
2022-08-26T12:37:35.458Z,11.80
2022-08-26T12:40:27.038Z,11.17
2022-08-26T12:42:53.649Z,11.17
2022-08-26T12:45:29.038Z,10.80
2022-08-26T12:47:59.410Z,13.60
2022-08-26T12:50:31.881Z,11.03
2022-08-26T12:53:00.527Z,12.03
2022-08-26T12:55:42.912Z,13.67
2022-08-26T12:58:15.493Z,12.00
2022-08-26T13:00:45.885Z,19.57
2022-08-26T13:03:37.283Z,21.20
2022-08-26T13:06:30.001Z,0.40
2022-08-26T13:09:25.571Z,0.30
2022-08-26T13:11:54.999Z,0.40
2022-08-26T13:14:24.900Z,0.40
2022-08-26T13:16:52.762Z,0.80
2022-08-26T13:19:22.078Z,0.40
2022-08-26T13:21:52.873Z,0.40
2022-08-26T13:24:34.518Z,0.40
2022-08-26T13:27:01.661Z,0.43
2022-08-26T13:29:28.269Z,0.30
2022-08-26T13:31:55.895Z,0.40
2022-08-26T13:34:24.354Z,0.50
2022-08-26T13:36:54.051Z,0.50
2022-08-26T13:39:21.528Z,0.30
2022-08-26T13:41:48.248Z,0.40
2022-08-26T13:44:14.933Z,0.40
2022-08-26T13:46:41.890Z,0.43
2022-08-26T13:49:09.190Z,0.50
2022-08-26T13:51:36.360Z,0.50
2022-08-26T13:54:02.959Z,0.47
2022-08-26T13:56:29.883Z,0.40
2022-08-26T13:58:57.578Z,0.30
2022-08-26T14:01:24.365Z,0.30
2022-08-26T14:03:51.141Z,0.30
2022-08-26T14:06:18.226Z,0.37
2022-08-26T14:08:45.369Z,0.30
2022-08-26T14:11:12.051Z,0.20
2022-08-26T14:13:39.281Z,0.37
2022-08-26T14:16:09.970Z,0.23
2022-08-26T14:18:41.884Z,0.30
2022-08-26T14:21:09.126Z,0.43
2022-08-26T14:23:35.581Z,0.30
2022-08-26T14:26:04.007Z,0.33
2022-08-26T14:28:30.490Z,0.27
2022-08-26T14:30:58.283Z,0.30
2022-08-26T14:33:27.749Z,0.77
2022-08-26T15:11:40.889Z,5.00
2022-08-26T17:04:49.254Z,6.37
2022-08-26T17:07:16.962Z,10.67
2022-08-26T17:09:43.491Z,6.17
2022-08-26T17:12:10.035Z,6.30
2022-08-26T17:14:37.011Z,7.30
2022-08-26T17:17:04.072Z,7.87
2022-08-26T17:19:30.583Z,6.80
2022-08-26T17:22:10.722Z,6.27
2022-08-26T17:24:37.979Z,7.10
2022-08-26T17:27:04.864Z,10.17
2022-08-26T17:29:31.443Z,7.37
2022-08-26T17:31:57.934Z,6.77
2022-08-26T17:34:24.576Z,8.33
2022-08-26T17:36:51.914Z,9.20
2022-08-26T17:39:20.814Z,8.00
2022-08-26T17:41:47.322Z,8.97
2022-08-26T17:44:15.363Z,7.27
2022-08-26T17:46:42.037Z,7.97
2022-08-26T17:49:08.715Z,5.93
2022-08-26T17:51:35.302Z,7.73
2022-08-26T17:54:01.778Z,8.00
2022-08-26T17:56:29.366Z,12.87
2022-08-26T17:59:02.325Z,7.07
2022-08-26T18:01:30.795Z,7.43
2022-08-26T18:04:00.390Z,7.13
2022-08-26T18:06:28.446Z,8.00
2022-08-26T18:08:55.467Z,10.53
2022-08-26T18:11:25.498Z,8.87
2022-08-26T18:13:52.121Z,8.47
2022-08-26T18:16:19.730Z,8.03
2022-08-26T18:18:47.699Z,8.43
2022-08-26T18:21:23.030Z,9.27
2022-08-26T18:23:50.531Z,7.90
2022-08-26T18:26:19.501Z,8.10
2022-08-26T18:28:46.172Z,8.93
2022-08-26T18:31:12.812Z,8.90
2022-08-26T18:33:39.349Z,8.80
2022-08-26T18:36:06.058Z,9.37
2022-08-26T18:38:32.836Z,8.20
2022-08-26T18:40:59.415Z,9.30
2022-08-26T18:43:25.955Z,8.60
2022-08-26T18:46:02.147Z,9.50
2022-08-26T18:48:28.679Z,9.83
2022-08-26T18:50:55.422Z,9.80
2022-08-26T18:53:21.989Z,8.97
2022-08-26T18:55:48.504Z,10.17
2022-08-26T18:58:16.411Z,9.53
2022-08-26T19:00:42.971Z,10.77
2022-08-26T19:03:19.102Z,9.53
2022-08-26T19:05:45.853Z,9.67
2022-08-26T19:08:12.544Z,10.03
2022-08-26T19:10:39.620Z,10.53
2022-08-26T19:13:07.362Z,13.07
2022-08-26T19:15:44.062Z,11.00
2022-08-26T19:18:12.289Z,11.70
2022-08-26T19:20:45.970Z,11.37
2022-08-26T19:23:30.452Z,11.83
2022-08-26T19:25:58.407Z,12.33
2022-08-26T19:28:24.967Z,11.83
2022-08-26T19:30:53.340Z,12.93
2022-08-26T19:33:20.095Z,12.93
2022-08-26T19:35:46.627Z,16.67
2022-08-26T19:38:13.759Z,13.37
2022-08-26T19:40:40.625Z,14.53
2022-08-26T19:43:07.323Z,15.00
2022-08-26T19:45:34.712Z,15.07
2022-08-26T19:48:01.731Z,15.23
2022-08-26T19:50:30.255Z,16.67
2022-08-26T19:52:56.788Z,15.73
2022-08-26T19:55:23.865Z,15.77
2022-08-26T19:57:52.294Z,15.40
2022-08-26T20:00:22.189Z,16.47
2022-08-26T20:02:48.824Z,17.13
2022-08-26T20:05:16.459Z,16.37
2022-08-26T20:07:43.042Z,16.40
2022-08-26T20:10:12.976Z,19.30
2022-08-26T20:12:41.681Z,18.30
2022-08-26T20:15:10.721Z,18.30
2022-08-26T20:17:37.483Z,18.53
2022-08-26T20:20:44.702Z,19.33
2022-08-26T20:23:11.251Z,18.77
2022-08-26T20:25:38.038Z,20.10
2022-08-26T20:28:06.294Z,19.77
2022-08-26T20:30:32.975Z,20.87
2022-08-26T20:32:59.509Z,20.90
2022-08-26T20:35:26.257Z,21.90
2022-08-26T20:37:52.785Z,21.87
2022-08-26T20:40:19.429Z,23.07
2022-08-26T20:42:46.122Z,23.40
2022-08-26T20:45:12.745Z,28.03
2022-08-26T20:47:39.510Z,27.03
2022-08-26T20:50:08.163Z,27.67
2022-08-26T20:52:35.900Z,25.07
2022-08-26T20:55:03.013Z,26.80
2022-08-26T20:57:30.148Z,27.90
2022-08-26T20:59:56.714Z,27.27
2022-08-26T21:02:24.672Z,27.07
2022-08-26T21:04:51.209Z,29.40
2022-08-26T21:07:17.889Z,34.30
2022-08-26T21:09:44.439Z,30.97
2022-08-26T21:12:10.950Z,30.17
2022-08-26T21:14:40.865Z,31.03
2022-08-26T21:20:55.571Z,29.63
2022-08-26T21:23:24.505Z,31.77
2022-08-26T21:25:53.644Z,29.47
2022-08-26T21:28:20.616Z,29.30
2022-08-26T21:30:48.251Z,30.03
2022-08-26T21:33:14.741Z,33.73
2022-08-26T21:35:41.267Z,34.50
2022-08-26T21:38:07.858Z,33.27
2022-08-26T21:40:34.489Z,33.97
2022-08-26T21:43:01.014Z,32.53
2022-08-26T21:45:27.864Z,38.30
2022-08-26T21:47:54.599Z,34.03
2022-08-26T21:50:21.728Z,37.00
2022-08-26T21:52:48.317Z,33.00
2022-08-26T21:55:14.975Z,34.83
2022-08-26T21:57:41.527Z,37.73
2022-08-26T22:00:11.901Z,38.23
2022-08-26T22:02:38.591Z,34.87
2022-08-26T22:05:05.648Z,38.73
2022-08-26T22:07:32.554Z,38.13
2022-08-26T22:09:59.227Z,33.53
2022-08-26T22:12:25.785Z,33.83
2022-08-26T22:14:52.719Z,35.00
2022-08-26T22:17:19.257Z,34.43
2022-08-26T22:19:46.719Z,31.53
2022-08-26T22:22:14.909Z,37.77
2022-08-26T22:24:43.244Z,35.10
2022-08-26T22:27:11.934Z,42.73
2022-08-26T22:29:38.716Z,31.70
2022-08-26T22:32:05.450Z,36.57
2022-08-26T22:34:33.353Z,33.37
2022-08-26T22:36:59.894Z,37.10
2022-08-26T22:39:26.733Z,35.47
2022-08-26T22:41:54.071Z,38.03
2022-08-26T22:44:21.421Z,39.67
2022-08-26T22:46:48.890Z,35.93
2022-08-26T22:49:16.495Z,39.37
2022-08-26T22:51:44.526Z,38.10
2022-08-26T22:54:11.098Z,39.23
2022-08-26T22:56:38.485Z,35.57
2022-08-26T22:59:07.781Z,37.73
2022-08-26T23:01:47.289Z,42.33
2022-08-26T23:04:14.231Z,40.10
2022-08-26T23:06:47.357Z,46.53
2022-08-26T23:09:17.105Z,42.63
2022-08-26T23:11:46.544Z,44.07
2022-08-26T23:14:13.955Z,43.40
2022-08-26T23:16:42.226Z,43.83
2022-08-26T23:19:12.037Z,42.87
2022-08-26T23:21:40.129Z,52.23
2022-08-26T23:24:08.539Z,48.20
2022-08-26T23:26:36.415Z,49.90
2022-08-26T23:29:04.919Z,54.30
2022-08-26T23:31:31.582Z,48.03
2022-08-26T23:34:16.795Z,52.07
2022-08-26T23:36:44.131Z,50.93
2022-08-26T23:39:14.104Z,49.33
2022-08-26T23:41:40.941Z,53.60
2022-08-26T23:44:07.518Z,46.20
2022-08-26T23:46:34.643Z,46.63
2022-08-26T23:49:01.721Z,54.70
2022-08-26T23:51:46.755Z,52.50
2022-08-26T23:54:14.826Z,59.83
2022-08-26T23:56:41.731Z,58.57
2022-08-26T23:59:08.410Z,60.83
